createdAt,value
2023-05-12T00:00:12.299Z,15.84
2023-05-12T00:01:12.313Z,15.84
2023-05-12T00:02:12.368Z,15.86
2023-05-12T00:03:12.704Z,15.89
2023-05-12T00:04:12.651Z,15.86
2023-05-12T00:05:12.531Z,15.87
2023-05-12T00:06:12.661Z,15.89
2023-05-12T00:07:12.654Z,15.87
2023-05-12T00:08:12.707Z,15.87
2023-05-12T00:09:12.781Z,15.87
2023-05-12T00:10:12.827Z,15.90
2023-05-12T00:11:12.847Z,15.89
2023-05-12T00:12:12.937Z,15.87
2023-05-12T00:13:12.959Z,15.86
2023-05-12T00:14:13.039Z,15.89
2023-05-12T00:15:13.077Z,15.87
2023-05-12T00:16:13.150Z,15.89
2023-05-12T00:17:13.190Z,15.89
2023-05-12T00:18:13.253Z,15.89
2023-05-12T00:19:13.283Z,15.89
2023-05-12T00:20:13.360Z,15.86
2023-05-12T00:21:13.428Z,15.87
2023-05-12T00:22:13.474Z,15.89
2023-05-12T00:23:13.600Z,15.86
2023-05-12T00:24:13.653Z,15.84
2023-05-12T00:25:13.687Z,15.81
2023-05-12T00:26:13.736Z,15.83
2023-05-12T00:27:13.761Z,15.84
2023-05-12T00:28:13.849Z,15.86
2023-05-12T00:29:13.954Z,15.86
2023-05-12T00:30:13.937Z,15.86
2023-05-12T00:31:13.987Z,15.84
2023-05-12T00:32:13.970Z,15.84
2023-05-12T00:33:13.976Z,15.81
2023-05-12T00:34:14.324Z,15.79
2023-05-12T00:35:14.079Z,15.77
2023-05-12T00:36:14.078Z,15.77
2023-05-12T00:37:14.142Z,15.77
2023-05-12T00:38:14.230Z,15.79
2023-05-12T00:39:14.324Z,15.80
2023-05-12T00:40:14.275Z,15.80
2023-05-12T00:41:14.312Z,15.81
2023-05-12T00:42:14.381Z,15.80
2023-05-12T00:43:14.438Z,15.73
2023-05-12T00:44:14.509Z,15.76
2023-05-12T00:45:14.555Z,15.77
2023-05-12T00:46:14.583Z,15.77
2023-05-12T00:47:14.620Z,15.80
2023-05-12T00:48:14.673Z,15.81
2023-05-12T00:49:14.788Z,15.81
2023-05-12T00:50:14.822Z,15.83
2023-05-12T00:51:14.846Z,15.83
2023-05-12T00:52:14.928Z,15.83
2023-05-12T00:53:14.937Z,15.83
2023-05-12T00:54:15.029Z,15.83
2023-05-12T00:55:15.069Z,15.84
2023-05-12T00:56:15.069Z,15.84
2023-05-12T00:57:15.100Z,15.87
2023-05-12T00:58:15.162Z,15.89
2023-05-12T00:59:15.297Z,15.90
2023-05-12T01:00:15.247Z,15.90
2023-05-12T01:01:15.255Z,15.90
2023-05-12T01:02:15.251Z,15.90
2023-05-12T01:03:15.452Z,15.93
2023-05-12T01:04:15.410Z,15.91
2023-05-12T01:05:15.424Z,15.90
2023-05-12T01:06:15.457Z,15.91
2023-05-12T01:07:15.546Z,15.91
2023-05-12T01:08:15.623Z,15.90
2023-05-12T01:09:15.638Z,15.91
2023-05-12T01:10:15.759Z,15.93
2023-05-12T01:11:15.745Z,15.91
2023-05-12T01:12:15.850Z,15.94
2023-05-12T01:13:15.905Z,15.91
2023-05-12T01:14:16.041Z,15.89
2023-05-12T01:15:16.035Z,15.90
2023-05-12T01:16:16.044Z,15.86
2023-05-12T01:17:16.132Z,15.86
2023-05-12T01:18:16.177Z,15.83
2023-05-12T01:19:16.319Z,15.84
2023-05-12T01:20:16.274Z,15.84
2023-05-12T01:21:16.274Z,15.86
2023-05-12T01:22:16.287Z,15.83
2023-05-12T01:23:16.286Z,15.80
2023-05-12T01:24:16.360Z,15.79
2023-05-12T01:25:16.364Z,15.79
2023-05-12T01:26:16.457Z,15.79
2023-05-12T01:27:16.460Z,15.74
2023-05-12T01:28:16.524Z,15.70
2023-05-12T01:29:16.594Z,15.71
2023-05-12T01:30:16.640Z,15.73
2023-05-12T01:31:18.322Z,15.74
2023-05-12T01:32:16.673Z,15.66
2023-05-12T01:33:16.649Z,15.66
2023-05-12T01:34:16.699Z,15.66
2023-05-12T01:35:16.683Z,15.64
2023-05-12T01:36:16.667Z,15.63
2023-05-12T01:37:16.673Z,15.64
2023-05-12T01:38:16.630Z,15.66
2023-05-12T01:39:16.692Z,15.66
2023-05-12T01:40:16.600Z,15.69
2023-05-12T01:41:16.625Z,15.69
2023-05-12T01:42:16.644Z,15.69
2023-05-12T01:43:16.624Z,15.73
2023-05-12T01:44:16.642Z,15.71
2023-05-12T01:45:16.577Z,15.73
2023-05-12T01:46:16.628Z,15.71
2023-05-12T01:47:16.576Z,15.73
2023-05-12T01:48:16.605Z,15.70
2023-05-12T01:49:16.554Z,15.71
2023-05-12T01:50:16.578Z,15.71
2023-05-12T01:51:16.560Z,15.67
2023-05-12T01:52:16.574Z,15.69
2023-05-12T01:53:16.534Z,15.70
2023-05-12T01:54:16.531Z,15.69
2023-05-12T01:55:16.659Z,15.67
2023-05-12T01:56:16.526Z,15.69
2023-05-12T01:57:16.515Z,15.67
2023-05-12T01:58:16.925Z,15.69
2023-05-12T01:59:16.559Z,15.69
2023-05-12T02:00:16.479Z,15.70
2023-05-12T02:01:16.597Z,15.73
2023-05-12T02:02:16.570Z,15.74
2023-05-12T02:03:16.615Z,15.73
2023-05-12T02:04:16.582Z,15.73
2023-05-12T02:05:16.457Z,15.73
2023-05-12T02:06:16.471Z,15.74
2023-05-12T02:07:16.445Z,15.74
2023-05-12T02:08:16.536Z,15.74
2023-05-12T02:09:16.543Z,15.73
2023-05-12T02:10:16.723Z,15.74
2023-05-12T02:11:16.606Z,15.73
2023-05-12T02:12:16.719Z,15.71
2023-05-12T02:13:16.782Z,15.71
2023-05-12T02:14:16.830Z,15.69
2023-05-12T02:15:16.844Z,15.71
2023-05-12T02:16:16.927Z,15.64
2023-05-12T02:17:16.953Z,15.66
2023-05-12T02:18:16.959Z,15.64
2023-05-12T02:19:17.024Z,15.64
2023-05-12T02:20:17.142Z,15.61
2023-05-12T02:21:17.091Z,15.60
2023-05-12T02:22:17.197Z,15.54
2023-05-12T02:23:17.268Z,15.50
2023-05-12T02:24:17.280Z,15.49
2023-05-12T02:25:17.289Z,15.53
2023-05-12T02:26:17.326Z,15.51
2023-05-12T02:27:17.299Z,15.53
2023-05-12T02:28:17.304Z,15.57
2023-05-12T02:29:17.306Z,15.57
2023-05-12T02:30:17.341Z,15.54
2023-05-12T02:31:17.348Z,15.59
2023-05-12T02:32:17.364Z,15.59
2023-05-12T02:33:17.384Z,15.57
2023-05-12T02:34:17.375Z,15.59
2023-05-12T02:35:17.428Z,15.60
2023-05-12T02:36:17.513Z,15.63
2023-05-12T02:37:17.545Z,15.64
2023-05-12T02:38:17.618Z,15.67
2023-05-12T02:39:17.659Z,15.69
2023-05-12T02:40:17.894Z,15.73
2023-05-12T02:41:17.786Z,15.70
2023-05-12T02:42:17.842Z,15.73
2023-05-12T02:43:17.953Z,15.74
2023-05-12T02:44:17.991Z,15.71
2023-05-12T02:45:17.972Z,15.74
2023-05-12T02:46:18.057Z,15.71
2023-05-12T02:47:18.033Z,15.73
2023-05-12T02:48:18.112Z,15.73
2023-05-12T02:49:18.115Z,15.76
2023-05-12T02:50:18.285Z,15.77
2023-05-12T02:51:18.220Z,15.80
2023-05-12T02:52:18.257Z,15.80
2023-05-12T02:53:18.292Z,15.79
2023-05-12T02:54:18.360Z,15.81
2023-05-12T02:55:18.443Z,15.79
2023-05-12T02:56:18.444Z,15.76
2023-05-12T02:57:18.464Z,15.80
2023-05-12T02:58:18.473Z,15.77
2023-05-12T02:59:18.528Z,15.71
2023-05-12T03:00:18.648Z,15.69
2023-05-12T03:01:18.580Z,15.70
2023-05-12T03:02:18.649Z,15.69
2023-05-12T03:03:18.736Z,15.69
2023-05-12T03:04:18.750Z,15.70
2023-05-12T03:05:18.797Z,15.69
2023-05-12T03:06:18.876Z,15.66
2023-05-12T03:07:18.938Z,15.69
2023-05-12T03:08:18.995Z,15.67
2023-05-12T03:09:19.079Z,15.69
2023-05-12T03:10:19.524Z,15.69
2023-05-12T03:11:19.155Z,15.67
2023-05-12T03:12:19.221Z,15.66
2023-05-12T03:13:19.247Z,15.64
2023-05-12T03:14:19.268Z,15.63
2023-05-12T03:15:19.240Z,15.60
2023-05-12T03:16:19.817Z,15.60
2023-05-12T03:17:19.389Z,15.61
2023-05-12T03:18:19.258Z,15.64
2023-05-12T03:19:19.279Z,15.64
2023-05-12T03:20:19.824Z,15.66
2023-05-12T03:21:19.399Z,15.67
2023-05-12T03:22:19.503Z,15.71
2023-05-12T03:23:19.539Z,15.69
2023-05-12T03:24:19.615Z,15.70
2023-05-12T03:25:19.612Z,15.73
2023-05-12T03:26:19.668Z,15.71
2023-05-12T03:27:19.697Z,15.76
2023-05-12T03:28:19.739Z,15.76
2023-05-12T03:29:19.823Z,15.73
2023-05-12T03:30:19.938Z,15.76
2023-05-12T03:31:19.861Z,15.74
2023-05-12T03:32:19.915Z,15.76
2023-05-12T03:33:19.968Z,15.74
2023-05-12T03:34:20.042Z,15.77
2023-05-12T03:35:20.116Z,15.77
2023-05-12T03:36:20.150Z,15.79
2023-05-12T03:37:20.154Z,15.80
2023-05-12T03:38:20.179Z,15.80
2023-05-12T03:39:20.232Z,15.80
2023-05-12T03:40:20.600Z,15.80
2023-05-12T03:41:20.325Z,15.79
2023-05-12T03:42:20.413Z,15.76
2023-05-12T03:43:20.467Z,15.76
2023-05-12T03:44:20.619Z,15.69
2023-05-12T03:45:20.582Z,15.71
2023-05-12T03:46:20.730Z,15.69
2023-05-12T03:47:20.781Z,15.67
2023-05-12T03:48:21.298Z,15.70
2023-05-12T03:49:20.796Z,15.73
2023-05-12T03:50:20.920Z,15.73
2023-05-12T03:51:20.887Z,15.71
2023-05-12T03:52:20.958Z,15.73
2023-05-12T03:53:21.033Z,15.74
2023-05-12T03:54:21.096Z,15.74
2023-05-12T03:55:21.153Z,15.73
2023-05-12T03:56:21.200Z,15.73
2023-05-12T03:57:21.208Z,15.73
2023-05-12T03:58:21.217Z,15.73
2023-05-12T03:59:21.280Z,15.69
2023-05-12T04:00:21.378Z,15.64
2023-05-12T04:01:21.296Z,15.57
2023-05-12T04:02:21.427Z,15.53
2023-05-12T04:03:21.412Z,15.50
2023-05-12T04:04:21.434Z,15.49
2023-05-12T04:05:21.474Z,15.51
2023-05-12T04:06:21.479Z,15.54
2023-05-12T04:07:21.491Z,15.54
2023-05-12T04:08:21.488Z,15.61
2023-05-12T04:09:21.494Z,15.63
2023-05-12T04:10:21.659Z,15.66
2023-05-12T04:11:21.502Z,15.61
2023-05-12T04:12:21.523Z,15.63
2023-05-12T04:13:21.582Z,15.60
2023-05-12T04:14:28.956Z,15.53
2023-05-12T04:15:22.634Z,15.54
2023-05-12T04:16:21.575Z,15.51
2023-05-12T04:17:21.572Z,15.46
2023-05-12T04:18:21.578Z,15.36
2023-05-12T04:19:21.561Z,15.38
2023-05-12T04:20:21.675Z,15.40
2023-05-12T04:21:21.528Z,15.43
2023-05-12T04:22:22.888Z,15.39
2023-05-12T04:23:21.528Z,15.25
2023-05-12T04:24:21.494Z,15.23
2023-05-12T04:25:21.504Z,15.25
2023-05-12T04:26:21.467Z,15.26
2023-05-12T04:27:21.469Z,15.28
2023-05-12T04:28:21.498Z,15.30
2023-05-12T04:29:21.493Z,15.33
2023-05-12T04:30:21.660Z,15.36
2023-05-12T04:31:21.572Z,15.36
2023-05-12T04:32:21.471Z,15.38
2023-05-12T04:33:21.464Z,15.38
2023-05-12T04:34:21.484Z,15.39
2023-05-12T04:35:21.504Z,15.36
2023-05-12T04:36:21.453Z,15.40
2023-05-12T04:37:21.418Z,15.42
2023-05-12T04:38:21.400Z,15.42
2023-05-12T04:39:21.466Z,15.47
2023-05-12T04:40:21.592Z,15.50
2023-05-12T04:41:21.404Z,15.49
2023-05-12T04:42:21.404Z,15.53
2023-05-12T04:44:21.414Z,15.57
2023-05-12T04:45:21.582Z,15.53
2023-05-12T04:46:21.402Z,15.53
2023-05-12T04:47:21.368Z,15.51
2023-05-12T04:48:21.370Z,15.47
2023-05-12T04:49:21.369Z,15.40
2023-05-12T04:50:21.357Z,15.40
2023-05-12T04:51:21.335Z,15.40
2023-05-12T04:52:21.294Z,15.38
2023-05-12T04:53:21.329Z,15.32
2023-05-12T04:54:21.303Z,15.29
2023-05-12T04:55:21.658Z,15.32
2023-05-12T04:56:21.267Z,15.35
2023-05-12T04:57:21.288Z,15.42
2023-05-12T04:58:21.271Z,15.45
2023-05-12T04:59:21.286Z,15.51
2023-05-12T05:01:48.715Z,15.53
2023-05-12T05:02:41.089Z,15.59
2023-05-12T05:03:41.155Z,15.61
2023-05-12T05:04:41.014Z,15.63
2023-05-12T05:05:41.007Z,15.63
2023-05-12T05:06:40.966Z,15.60
2023-05-12T05:07:40.998Z,15.60
2023-05-12T05:08:41.030Z,15.60
2023-05-12T05:09:41.012Z,15.60
2023-05-12T05:10:40.981Z,15.59
2023-05-12T05:11:40.992Z,15.60
2023-05-12T05:12:40.990Z,15.60
2023-05-12T05:13:40.973Z,15.64
2023-05-12T05:14:40.999Z,15.67
2023-05-12T05:15:40.972Z,15.67
2023-05-12T05:16:40.936Z,15.73
2023-05-12T05:17:40.941Z,15.74
2023-05-12T05:18:40.927Z,15.74
2023-05-12T05:19:55.091Z,15.73
2023-05-12T05:20:45.245Z,15.76
2023-05-12T05:21:40.925Z,15.79
2023-05-12T05:22:40.898Z,15.77
2023-05-12T05:23:40.927Z,15.79
2023-05-12T05:24:40.882Z,15.83
2023-05-12T05:25:40.846Z,15.84
2023-05-12T05:26:40.855Z,15.84
2023-05-12T05:27:40.853Z,15.87
2023-05-12T05:28:40.893Z,15.84
2023-05-12T05:29:40.891Z,15.87
2023-05-12T05:30:40.830Z,15.89
2023-05-12T05:31:40.855Z,15.90
2023-05-12T05:32:41.399Z,15.94
2023-05-12T05:33:40.859Z,15.94
2023-05-12T05:34:40.890Z,15.96
2023-05-12T05:35:40.980Z,15.96
2023-05-12T05:36:40.768Z,15.97
2023-05-12T05:37:40.836Z,15.97
2023-05-12T05:38:40.852Z,15.94
2023-05-12T05:39:40.777Z,15.98
2023-05-12T05:40:52.254Z,15.98
2023-05-12T05:41:41.797Z,16.04
2023-05-12T05:42:40.762Z,16.12
2023-05-12T05:43:40.792Z,16.10
2023-05-12T05:44:40.769Z,16.03
2023-05-12T05:47:08.013Z,16.00
2023-05-12T05:48:00.676Z,16.00
2023-05-12T05:49:00.282Z,16.05
2023-05-12T05:50:00.499Z,16.12
2023-05-12T05:51:00.279Z,16.17
2023-05-12T05:52:01.248Z,16.24
2023-05-12T05:53:00.262Z,16.31
2023-05-12T05:54:00.234Z,16.32
2023-05-12T05:55:00.195Z,16.18
2023-05-12T05:56:00.217Z,16.04
2023-05-12T05:57:00.305Z,16.03
2023-05-12T05:58:00.211Z,16.05
2023-05-12T05:59:00.317Z,16.08
2023-05-12T06:00:00.247Z,16.11
2023-05-12T06:01:00.263Z,16.15
2023-05-12T06:02:00.274Z,16.20
2023-05-12T06:03:00.278Z,16.22
2023-05-12T06:04:00.391Z,16.29
2023-05-12T06:05:00.179Z,16.32
2023-05-12T06:06:00.292Z,16.36
2023-05-12T06:07:00.371Z,16.41
2023-05-12T06:08:00.284Z,16.40
2023-05-12T06:09:00.401Z,16.42
2023-05-12T06:10:00.742Z,16.47
2023-05-12T06:11:00.414Z,16.41
2023-05-12T06:12:00.483Z,16.41
2023-05-12T06:13:00.499Z,16.29
2023-05-12T06:14:00.622Z,16.32
2023-05-12T06:15:00.622Z,16.40
2023-05-12T06:16:00.692Z,16.44
2023-05-12T06:17:00.743Z,16.44
2023-05-12T06:18:00.834Z,16.38
2023-05-12T06:19:00.854Z,16.40
2023-05-12T06:20:00.773Z,16.42
2023-05-12T06:21:01.003Z,16.40
2023-05-12T06:22:01.242Z,16.41
2023-05-12T06:23:00.898Z,16.42
2023-05-12T06:24:01.134Z,16.44
2023-05-12T06:25:00.859Z,16.45
2023-05-12T06:26:01.079Z,16.47
2023-05-12T06:27:00.929Z,16.51
2023-05-12T06:28:00.918Z,16.56
2023-05-12T06:29:01.004Z,16.59
2023-05-12T06:30:01.001Z,16.66
2023-05-12T06:31:01.100Z,16.72
2023-05-12T06:32:01.117Z,16.76
2023-05-12T06:33:01.078Z,16.75
2023-05-12T06:34:01.083Z,16.75
2023-05-12T06:35:01.123Z,16.76
2023-05-12T06:36:01.516Z,16.69
2023-05-12T06:37:01.504Z,16.79
2023-05-12T06:38:01.151Z,16.85
2023-05-12T06:39:01.202Z,16.80
2023-05-12T06:40:01.177Z,16.85
2023-05-12T06:41:01.587Z,16.92
2023-05-12T06:42:01.201Z,16.97
2023-05-12T06:43:01.208Z,17.10
2023-05-12T06:44:01.236Z,17.23
2023-05-12T06:45:01.995Z,17.25
2023-05-12T06:46:01.537Z,17.26
2023-05-12T06:47:01.405Z,17.26
2023-05-12T06:48:01.483Z,17.25
2023-05-12T06:49:01.497Z,17.13
2023-05-12T06:50:01.920Z,17.10
2023-05-12T06:51:02.265Z,17.02
2023-05-12T06:52:02.014Z,17.01
2023-05-12T06:53:01.716Z,17.02
2023-05-12T06:54:01.778Z,16.96
2023-05-12T06:55:01.878Z,17.03
2023-05-12T06:56:01.845Z,16.93
2023-05-12T06:57:02.875Z,16.99
2023-05-12T06:58:02.019Z,17.03
2023-05-12T06:59:02.161Z,17.07
2023-05-12T07:00:02.073Z,17.19
2023-05-12T07:01:02.225Z,17.23
2023-05-12T07:02:02.251Z,17.26
2023-05-12T07:03:02.287Z,17.30
2023-05-12T07:04:02.352Z,17.27
2023-05-12T07:05:02.364Z,17.33
2023-05-12T07:06:02.621Z,17.40
2023-05-12T07:07:02.437Z,17.37
2023-05-12T07:08:02.866Z,17.44
2023-05-12T07:09:02.561Z,17.53
2023-05-12T07:10:02.620Z,17.40
2023-05-12T07:11:03.430Z,17.22
2023-05-12T07:12:02.708Z,17.06
2023-05-12T07:13:02.676Z,17.15
2023-05-12T07:14:02.720Z,17.16
2023-05-12T07:15:03.297Z,17.25
2023-05-12T07:16:02.816Z,17.31
2023-05-12T07:17:02.862Z,17.15
2023-05-12T07:18:02.968Z,17.20
2023-05-12T07:19:02.909Z,17.22
2023-05-12T07:20:02.944Z,17.29
2023-05-12T07:21:02.932Z,17.09
2023-05-12T07:22:04.270Z,17.06
2023-05-12T07:23:02.996Z,17.15
2023-05-12T07:24:03.071Z,17.23
2023-05-12T07:25:03.217Z,17.30
2023-05-12T07:26:03.207Z,17.36
2023-05-12T07:27:03.220Z,17.05
2023-05-12T07:28:03.126Z,17.13
2023-05-12T07:29:03.199Z,17.06
2023-05-12T07:30:03.541Z,17.12
2023-05-12T07:31:03.611Z,17.10
2023-05-12T07:32:03.325Z,17.13
2023-05-12T07:33:03.287Z,17.19
2023-05-12T07:34:03.389Z,17.05
2023-05-12T07:35:03.636Z,17.06
2023-05-12T07:36:03.600Z,17.15
2023-05-12T07:37:03.448Z,17.25
2023-05-12T07:38:03.474Z,17.31
2023-05-12T07:39:03.493Z,17.41
2023-05-12T07:40:03.616Z,17.43
2023-05-12T07:41:04.090Z,17.54
2023-05-12T07:42:03.942Z,17.58
2023-05-12T07:43:03.880Z,17.53
2023-05-12T07:44:03.852Z,17.48
2023-05-12T07:45:03.675Z,17.56
2023-05-12T07:46:04.302Z,17.56
2023-05-12T07:47:04.116Z,17.70
2023-05-12T07:48:04.389Z,17.81
2023-05-12T07:49:03.805Z,17.88
2023-05-12T07:50:04.059Z,17.95
2023-05-12T07:51:04.036Z,18.01
2023-05-12T07:52:03.988Z,18.12
2023-05-12T07:53:04.002Z,18.18
2023-05-12T07:54:04.108Z,18.16
2023-05-12T07:55:03.998Z,17.85
2023-05-12T07:56:04.598Z,17.91
2023-05-12T07:57:04.052Z,17.94
2023-05-12T07:58:04.236Z,18.07
2023-05-12T07:59:04.161Z,18.24
2023-05-12T08:00:04.171Z,18.42
2023-05-12T08:01:04.260Z,18.53
2023-05-12T08:02:04.574Z,18.69
2023-05-12T08:03:04.338Z,18.77
2023-05-12T08:04:04.443Z,18.67
2023-05-12T08:05:04.409Z,18.76
2023-05-12T08:06:04.657Z,18.73
2023-05-12T08:07:04.465Z,18.76
2023-05-12T08:08:04.716Z,18.80
2023-05-12T08:09:04.649Z,18.84
2023-05-12T08:10:04.862Z,18.86
2023-05-12T08:11:04.612Z,18.99
2023-05-12T08:12:04.704Z,19.10
2023-05-12T08:13:04.748Z,19.18
2023-05-12T08:14:05.110Z,19.13
2023-05-12T08:15:05.643Z,19.06
2023-05-12T08:16:05.141Z,19.13
2023-05-12T08:17:04.824Z,19.20
2023-05-12T08:18:05.005Z,19.28
2023-05-12T08:19:05.497Z,19.20
2023-05-12T08:20:05.068Z,19.16
2023-05-12T08:21:05.386Z,19.16
2023-05-12T08:22:05.030Z,19.16
2023-05-12T08:23:05.534Z,19.24
2023-05-12T08:24:05.370Z,19.34
2023-05-12T08:25:05.156Z,19.39
2023-05-12T08:26:05.728Z,19.30
2023-05-12T08:27:05.144Z,19.31
2023-05-12T08:28:05.138Z,19.37
2023-05-12T08:29:05.380Z,19.38
2023-05-12T08:30:05.329Z,19.45
2023-05-12T08:31:05.983Z,19.58
2023-05-12T08:32:05.357Z,19.69
2023-05-12T08:33:06.723Z,19.86
2023-05-12T08:35:05.854Z,19.89
2023-05-12T08:36:05.445Z,19.95
2023-05-12T08:37:05.628Z,20.00
2023-05-12T08:38:05.336Z,19.88
2023-05-12T08:39:05.397Z,19.65
2023-05-12T08:40:05.346Z,19.74
2023-05-12T08:41:05.408Z,19.50
2023-05-12T08:42:05.353Z,19.48
2023-05-12T08:43:05.360Z,19.57
2023-05-12T08:44:05.352Z,19.71
2023-05-12T08:45:05.292Z,19.75
2023-05-12T08:46:05.379Z,19.68
2023-05-12T08:47:05.552Z,19.74
2023-05-12T08:48:05.351Z,19.60
2023-05-12T08:49:05.444Z,19.64
2023-05-12T08:50:05.320Z,19.71
2023-05-12T08:51:05.419Z,19.74
2023-05-12T08:52:05.940Z,19.68
2023-05-12T08:53:05.798Z,19.67
2023-05-12T08:54:05.857Z,19.75
2023-05-12T08:55:05.771Z,19.78
2023-05-12T08:58:05.261Z,19.93
2023-05-12T08:59:06.385Z,19.93
2023-05-12T09:00:05.204Z,19.99
2023-05-12T09:01:06.310Z,19.99
2023-05-12T09:02:05.346Z,19.98
2023-05-12T09:03:05.296Z,19.95
2023-05-12T09:04:05.263Z,19.95
2023-05-12T09:05:05.182Z,19.96
2023-05-12T09:06:05.334Z,19.89
2023-05-12T09:07:05.542Z,19.89
2023-05-12T09:08:05.184Z,19.95
2023-05-12T09:09:05.901Z,19.88
2023-05-12T09:10:05.197Z,19.91
2023-05-12T09:11:05.139Z,19.93
2023-05-12T09:12:05.531Z,20.04
2023-05-12T09:13:05.134Z,20.15
2023-05-12T09:14:05.474Z,20.26
2023-05-12T09:15:05.386Z,20.35
2023-05-12T09:16:05.252Z,20.37
2023-05-12T09:17:05.912Z,20.32
2023-05-12T09:18:05.088Z,20.35
2023-05-12T09:19:07.005Z,20.37
2023-05-12T09:20:05.213Z,20.23
2023-05-12T09:21:05.325Z,20.11
2023-05-12T09:22:05.662Z,20.13
2023-05-12T09:23:05.093Z,20.16
2023-05-12T09:24:05.155Z,20.19
2023-05-12T09:25:05.270Z,20.26
2023-05-12T09:26:05.309Z,20.08
2023-05-12T09:27:05.597Z,20.02
2023-05-12T09:28:05.270Z,19.93
2023-05-12T09:29:05.846Z,19.92
2023-05-12T09:30:05.393Z,20.00
2023-05-12T09:31:05.509Z,20.11
2023-05-12T09:32:05.580Z,20.23
2023-05-12T09:33:05.646Z,20.36
2023-05-12T09:34:05.639Z,20.52
2023-05-12T09:35:05.549Z,20.63
2023-05-12T09:36:05.567Z,20.64
2023-05-12T09:37:05.617Z,20.69
2023-05-12T09:38:05.646Z,20.76
2023-05-12T09:39:05.710Z,20.95
2023-05-12T09:40:05.719Z,21.07
2023-05-12T09:41:05.996Z,21.20
2023-05-12T09:42:05.835Z,21.14
2023-05-12T09:43:05.800Z,21.21
2023-05-12T09:44:05.881Z,21.00
2023-05-12T09:45:05.779Z,21.07
2023-05-12T09:46:05.875Z,21.18
2023-05-12T09:47:06.065Z,21.24
2023-05-12T09:48:06.011Z,21.33
2023-05-12T09:49:05.954Z,21.31
2023-05-12T09:50:05.991Z,21.33
2023-05-12T09:51:05.970Z,21.31
2023-05-12T09:52:06.190Z,21.28
2023-05-12T09:53:06.006Z,21.30
2023-05-12T09:54:07.828Z,21.33
2023-05-12T09:55:06.091Z,21.34
2023-05-12T09:56:06.053Z,21.31
2023-05-12T09:57:06.590Z,21.33
2023-05-12T09:58:06.205Z,21.40
2023-05-12T09:59:06.323Z,21.30
2023-05-12T10:00:16.569Z,21.30
2023-05-12T10:02:07.392Z,21.03
2023-05-12T10:03:06.256Z,20.95
2023-05-12T10:04:06.251Z,20.90
2023-05-12T10:05:06.394Z,20.83
2023-05-12T10:06:07.832Z,20.86
2023-05-12T10:07:06.511Z,20.86
2023-05-12T10:08:06.600Z,20.80
2023-05-12T10:09:06.185Z,20.83
2023-05-12T10:10:06.202Z,20.81
2023-05-12T10:11:06.157Z,20.84
2023-05-12T10:12:06.204Z,20.83
2023-05-12T10:13:06.174Z,20.93
2023-05-12T10:14:06.263Z,20.86
2023-05-12T10:15:06.439Z,20.91
2023-05-12T10:16:06.178Z,20.97
2023-05-12T10:17:06.256Z,21.05
2023-05-12T10:18:07.023Z,21.10
2023-05-12T10:19:06.602Z,21.07
2023-05-12T10:20:06.987Z,21.08
2023-05-12T10:21:06.268Z,21.11
2023-05-12T10:22:06.231Z,21.11
2023-05-12T10:23:06.575Z,21.10
2023-05-12T10:24:06.238Z,21.04
2023-05-12T10:25:06.366Z,21.05
2023-05-12T10:26:06.372Z,21.05
2023-05-12T10:27:06.439Z,21.05
2023-05-12T10:28:06.561Z,21.04
2023-05-12T10:29:06.425Z,20.95
2023-05-12T10:30:06.543Z,20.93
2023-05-12T10:31:06.685Z,20.97
2023-05-12T10:32:06.715Z,20.98
2023-05-12T10:33:07.152Z,21.03
2023-05-12T10:34:06.689Z,21.08
2023-05-12T10:35:06.616Z,20.93
2023-05-12T10:36:07.260Z,20.97
2023-05-12T10:37:06.662Z,21.01
2023-05-12T10:38:07.066Z,21.07
2023-05-12T10:39:06.725Z,21.00
2023-05-12T10:40:07.821Z,20.89
2023-05-12T10:41:06.849Z,20.90
2023-05-12T10:42:06.928Z,20.94
2023-05-12T10:43:06.908Z,20.89
2023-05-12T10:44:06.883Z,20.74
2023-05-12T10:45:06.993Z,20.81
2023-05-12T10:46:07.041Z,20.91
2023-05-12T10:47:07.501Z,20.93
2023-05-12T10:48:07.074Z,21.03
2023-05-12T10:49:07.100Z,21.10
2023-05-12T10:50:07.093Z,21.03
2023-05-12T10:51:07.094Z,21.01
2023-05-12T10:52:07.200Z,21.03
2023-05-12T10:53:08.734Z,20.97
2023-05-12T10:54:07.168Z,21.00
2023-05-12T10:55:07.182Z,20.74
2023-05-12T10:56:07.583Z,20.87
2023-05-12T10:57:07.348Z,20.95
2023-05-12T10:58:07.563Z,20.95
2023-05-12T10:59:07.609Z,20.97
2023-05-12T11:00:07.708Z,21.11
2023-05-12T11:01:08.147Z,21.20
2023-05-12T11:02:08.180Z,21.23
2023-05-12T11:03:10.469Z,21.15
2023-05-12T11:04:07.220Z,21.14
2023-05-12T11:05:07.327Z,21.18
2023-05-12T11:06:07.367Z,21.25
2023-05-12T11:07:08.075Z,21.33
2023-05-12T11:08:07.473Z,21.24
2023-05-12T11:09:07.302Z,21.21
2023-05-12T11:10:08.041Z,21.27
2023-05-12T11:11:07.184Z,21.24
2023-05-12T11:12:07.123Z,21.27
2023-05-12T11:13:07.141Z,21.15
2023-05-12T11:14:07.206Z,21.25
2023-05-12T11:15:07.302Z,21.35
2023-05-12T11:16:07.041Z,21.45
2023-05-12T11:17:07.044Z,21.48
2023-05-12T11:18:07.044Z,21.49
2023-05-12T11:19:07.193Z,21.48
2023-05-12T11:20:07.021Z,21.52
2023-05-12T11:21:07.462Z,21.56
2023-05-12T11:22:06.981Z,21.55
2023-05-12T11:23:07.218Z,21.51
2023-05-12T11:24:07.023Z,21.54
2023-05-12T11:25:07.020Z,21.44
2023-05-12T11:26:06.953Z,21.35
2023-05-12T11:27:06.983Z,21.46
2023-05-12T11:28:06.987Z,21.54
2023-05-12T11:29:07.127Z,21.59
2023-05-12T11:30:07.029Z,21.72
2023-05-12T11:31:08.229Z,21.61
2023-05-12T11:32:07.353Z,21.74
2023-05-12T11:33:09.013Z,21.84
2023-05-12T11:34:11.892Z,21.99
2023-05-12T11:35:08.126Z,22.17
2023-05-12T11:36:08.362Z,22.32
2023-05-12T11:37:07.597Z,22.43
2023-05-12T11:38:07.628Z,22.40
2023-05-12T11:39:07.614Z,22.40
2023-05-12T11:40:07.067Z,22.57
2023-05-12T11:41:07.527Z,22.67
2023-05-12T11:42:13.008Z,22.83
2023-05-12T11:43:08.149Z,22.80
2023-05-12T11:44:07.232Z,22.91
2023-05-12T11:45:07.014Z,23.08
2023-05-12T11:46:07.091Z,23.18
2023-05-12T11:47:07.012Z,23.33
2023-05-12T11:48:07.140Z,23.44
2023-05-12T11:49:07.139Z,23.33
2023-05-12T11:50:07.963Z,23.49
2023-05-12T11:51:07.280Z,23.56
2023-05-12T11:52:07.020Z,23.61
2023-05-12T11:53:06.949Z,23.73
2023-05-12T11:54:06.987Z,23.77
2023-05-12T11:55:07.044Z,23.83
2023-05-12T11:56:06.979Z,23.90
2023-05-12T11:57:06.982Z,24.03
2023-05-12T11:58:06.943Z,24.12
2023-05-12T11:59:06.987Z,24.26
2023-05-12T12:00:07.004Z,24.37
2023-05-12T12:01:07.031Z,24.47
2023-05-12T12:02:07.091Z,24.53
2023-05-12T12:03:07.269Z,24.61
2023-05-12T12:04:07.355Z,24.61
2023-05-12T12:05:09.207Z,24.68
2023-05-12T12:06:07.165Z,24.67
2023-05-12T12:07:07.159Z,24.58
2023-05-12T12:08:07.195Z,24.36
2023-05-12T12:09:07.201Z,24.26
2023-05-12T12:10:07.201Z,24.31
2023-05-12T12:11:07.283Z,24.14
2023-05-12T12:12:07.322Z,24.00
2023-05-12T12:13:07.399Z,23.70
2023-05-12T12:14:07.435Z,23.76
2023-05-12T12:15:07.426Z,23.38
2023-05-12T12:16:07.468Z,23.02
2023-05-12T12:17:07.480Z,23.04
2023-05-12T12:18:07.563Z,23.18
2023-05-12T12:19:07.596Z,23.11
2023-05-12T12:20:07.539Z,23.21
2023-05-12T12:21:07.596Z,23.33
2023-05-12T12:22:07.666Z,23.52
2023-05-12T12:23:07.621Z,23.59
2023-05-12T12:24:07.670Z,23.65
2023-05-12T12:25:07.709Z,23.61
2023-05-12T12:26:07.728Z,23.68
2023-05-12T12:27:07.793Z,23.75
2023-05-12T12:28:07.805Z,23.75
2023-05-12T12:29:07.859Z,23.66
2023-05-12T12:30:07.947Z,23.87
2023-05-12T12:31:07.979Z,23.72
2023-05-12T12:32:07.969Z,23.82
2023-05-12T12:33:08.127Z,23.93
2023-05-12T12:34:08.105Z,24.04
2023-05-12T12:35:08.088Z,24.19
2023-05-12T12:36:08.117Z,24.14
2023-05-12T12:37:08.183Z,24.28
2023-05-12T12:38:08.209Z,24.33
2023-05-12T12:39:08.194Z,24.47
2023-05-12T12:40:08.263Z,24.56
2023-05-12T12:41:08.143Z,24.61
2023-05-12T12:42:08.215Z,24.68
2023-05-12T12:43:08.365Z,24.48
2023-05-12T12:44:08.325Z,23.73
2023-05-12T12:45:08.272Z,23.82
2023-05-12T12:46:08.365Z,23.86
2023-05-12T12:47:08.443Z,23.89
2023-05-12T12:48:08.435Z,23.75
2023-05-12T12:49:08.411Z,23.82
2023-05-12T12:50:08.571Z,23.87
2023-05-12T12:51:08.502Z,23.90
2023-05-12T12:52:08.589Z,23.99
2023-05-12T12:53:08.585Z,24.14
2023-05-12T12:54:08.633Z,24.23
2023-05-12T12:55:08.601Z,24.41
2023-05-12T12:56:08.659Z,24.54
2023-05-12T12:57:08.718Z,24.58
2023-05-12T12:58:08.739Z,24.65
2023-05-12T12:59:08.783Z,24.75
2023-05-12T13:00:08.859Z,24.78